Skip to main content.
 TIME   TEMPERATURE   WINDSPEED   DIRECTION   HUMIDITY   BAROMETER   RAINFALL 
3:50 23.9°C (75.0°F) 11.1 kmh (6.9 mph) NNW 68% 1016.0hPa (30.00 inHg) 0.0mm (0.00 in.)
2:50 23.9°C (75.0 °F) 9.3 kmh (5.8 mph) N 68% 1016.0hPa (30.00 inHg) 0.0mm (0.00 in.)
1:50 24.0°C (75.2 °F) 11.1 kmh (6.9 mph) NNW 67% 1017.0hPa (30.03 inHg) 0.0mm (0.00 in.)
12:50 24.2°C (75.6 °F) 11.1 kmh (6.9 mph) NNW 66% 1017.0hPa (30.03 inHg) 0.0mm (0.00 in.)
11:50 24.4°C (75.9 °F) 11.1 kmh (6.9 mph) NNW 64% 1017.0hPa (30.03 inHg) 0.0mm (0.00 in.)
10:50 24.6°C (76.3 °F) 0.0 kmh (0.0 mph) N 62% 1017.0hPa (30.03 inHg) 0.0mm (0.00 in.)
9:50 24.8°C (76.6 °F) 0.0 kmh (0.0 mph) NNW 61% 1017.0hPa (30.03 inHg) 0.0mm (0.00 in.)
8:50 25.1°C (77.2 °F) 13.0 kmh (8.1 mph) NNE 59% 1017.0hPa (30.03 inHg) 0.0mm (0.00 in.)
7:50 26.5°C (79.7 °F) 0.0 kmh (0.0 mph) NNE 56% 1016.0hPa (30.00 inHg) 0.0mm (0.00 in.)
6:50 26.9°C (80.4 °F) 13.0 kmh (8.1 mph) NNE 54% 1016.0hPa (30.00 inHg) 0.0mm (0.00 in.)
5:50 27.3°C (81.1 °F) 11.1 kmh (6.9 mph) WNW 53% 1016.0hPa (30.00 inHg) 0.0mm (0.00 in.)
4:50 27.7°C (81.9 °F) 11.1 kmh (6.9 mph) N 53% 1017.0hPa (30.03 inHg) 0.0mm (0.00 in.)
3:50 28.4°C (83.1 °F) 1.9 kmh (1.2 mph) N 51% 1017.0hPa (30.03 inHg) 0.0mm (0.00 in.)
2:50 33.6°C (92.5 °F) 11.1 kmh (6.9 mph) NW 48% 1018.0hPa (30.06 inHg) 0.0mm (0.00 in.)
1:50 31.1°C (88.0 °F) 14.8 kmh (9.2 mph) NNE 52% 1018.0hPa (30.06 inHg) 0.0mm (0.00 in.)
12:50 29.7°C (85.5 °F) 13.0 kmh (8.1 mph) NNW 53% 1018.0hPa (30.06 inHg) 0.0mm (0.00 in.)
11:50 29.1°C (84.4 °F) 16.7 kmh (10.4 mph) NNW 53% 1019.0hPa (30.09 inHg) 0.0mm (0.00 in.)
10:50 28.5°C (83.3 °F) 1.9 kmh (1.2 mph) NNW 54% 1018.0hPa (30.06 inHg) 0.0mm (0.00 in.)
9:50 27.2°C (81.0 °F) 1.9 kmh (1.2 mph) W 58% 1018.0hPa (30.06 inHg) 0.0mm (0.00 in.)
8:50 26.2°C (79.2 °F) 0.0 kmh (0.0 mph) NNW 62% 1018.0hPa (30.06 inHg) 0.0mm (0.00 in.)
7:50 23.0°C (73.4 °F) 0.0 kmh (0.0 mph) NE 64% 1018.0hPa (30.06 inHg) 0.0mm (0.00 in.)
6:50 22.7°C (72.9 °F) 0.0 kmh (0.0 mph) NNE 64% 1017.0hPa (30.03 inHg) 0.0mm (0.00 in.)
5:50 22.6°C (72.7 °F) 0.0 kmh (0.0 mph) NNE 64% 1017.0hPa (30.03 inHg) 0.0mm (0.00 in.)
4:50 22.7°C (72.9 °F) 7.4 kmh (4.6 mph) NE 62% 1017.0hPa (30.03 inHg) 0.0mm (0.00 in.)